Time;durP1;ratioP1;P1;durP2;ratioP2;P2;SDS_P1;SDS_P2;PMS_P1;PMS_P2;Temp;Humidity;BMP_temperature;BMP_pressure;BME280_temperature;BME280_humidity;BME280_pressure;Samples;Min_cycle;Max_cycle;Signal;HPM_P1;HPM_P2
2023/11/18 00:01:34;;;;;;;12.40;11.10;;;;;;;3.98;94.42;101668.53;7394418;19;20365;-60
2023/11/18 00:04:01;;;;;;;11.90;10.50;;;;;;;3.92;94.39;101675.03;7393357;19;20365;-58
2023/11/18 00:06:28;;;;;;;13.13;11.20;;;;;;;3.84;94.57;101672.13;7392899;19;20368;-58
2023/11/18 00:08:55;;;;;;;14.77;11.75;;;;;;;3.77;94.52;101676.94;7393834;19;20903;-57
2023/11/18 00:11:22;;;;;;;13.65;12.00;;;;;;;3.73;94.66;101679.91;7394166;19;20372;-58
2023/11/18 00:13:48;;;;;;;13.75;11.45;;;;;;;3.67;94.89;101684.63;7395044;19;20408;-59
2023/11/18 00:16:16;;;;;;;12.30;11.00;;;;;;;3.63;94.71;101685.78;7394408;19;20454;-60
2023/11/18 00:18:43;;;;;;;13.93;12.45;;;;;;;3.59;94.91;101683.47;7392097;19;20357;-58
2023/11/18 00:21:10;;;;;;;17.80;12.60;;;;;;;3.56;95.39;101684.53;7390803;19;20365;-58
2023/11/18 00:23:37;;;;;;;15.07;13.48;;;;;;;3.54;95.35;101681.16;7393008;19;20375;-58
2023/11/18 00:26:06;;;;;;;15.38;13.70;;;;;;;3.56;95.60;101684.53;7393456;19;20898;-60
2023/11/18 00:28:34;;;;;;;15.55;13.88;;;;;;;3.61;96.07;101682.44;7393335;19;20352;-59
2023/11/18 00:31:00;;;;;;;15.73;13.88;;;;;;;3.65;96.32;101683.03;7390074;19;20373;-59
2023/11/18 00:33:27;;;;;;;15.73;14.02;;;;;;;3.71;96.32;101682.63;7394569;19;20333;-60
2023/11/18 00:35:54;;;;;;;15.65;12.57;;;;;;;3.77;96.57;101684.00;7394055;19;20376;-61
2023/11/18 00:38:21;;;;;;;15.93;14.23;;;;;;;3.82;96.55;101680.09;7392091;19;20368;-58
2023/11/18 00:40:48;;;;;;;18.95;16.25;;;;;;;3.91;96.61;101683.03;7390451;19;20380;-60
2023/11/18 00:43:15;;;;;;;15.50;13.88;;;;;;;3.97;96.55;101680.81;7394225;19;20375;-59
2023/11/18 00:45:43;;;;;;;17.60;14.93;;;;;;;4.04;96.66;101681.22;7393181;19;20856;-60
2023/11/18 00:48:10;;;;;;;17.42;15.20;;;;;;;4.11;96.51;101676.38;7390047;19;20368;-61
2023/11/18 00:50:36;;;;;;;17.20;15.35;;;;;;;4.17;96.63;101679.41;7393074;19;20392;-57
2023/11/18 00:53:05;;;;;;;16.80;15.13;;;;;;;4.25;96.64;101678.84;7392455;19;20352;-60
2023/11/18 00:55:32;;;;;;;17.00;15.07;;;;;;;4.32;97.00;101680.09;7393681;19;20360;-59
2023/11/18 00:57:59;;;;;;;16.83;15.03;;;;;;;4.38;97.01;101687.53;7390628;19;20397;-60
2023/11/18 01:00:26;;;;;;;18.40;15.52;;;;;;;4.45;96.94;101683.53;7392576;19;20355;-60
2023/11/18 01:02:54;;;;;;;18.73;15.07;;;;;;;4.54;97.04;101687.25;7392519;19;20368;-60
2023/11/18 01:05:21;;;;;;;18.63;16.08;;;;;;;4.61;97.14;101695.53;7392003;19;20352;-60
2023/11/18 01:07:48;;;;;;;19.15;16.15;;;;;;;4.66;97.12;101702.16;7392932;19;20361;-61
2023/11/18 01:10:15;;;;;;;17.77;15.93;;;;;;;4.75;97.22;101700.63;7389912;19;20373;-59
2023/11/18 01:12:45;;;;;;;16.90;14.77;;;;;;;4.81;97.24;101705.44;7394271;19;20888;-57
2023/11/18 01:15:12;;;;;;;15.57;13.85;;;;;;;4.86;96.95;101713.81;7391233;19;20348;-61
2023/11/18 01:17:39;;;;;;;13.95;12.45;;;;;;;4.89;97.02;101715.41;7393644;19;20912;-61
2023/11/18 01:20:10;;;;;;;14.68;12.80;;;;;;;4.96;96.95;101721.06;7392734;19;20369;-60
2023/11/18 01:22:38;;;;;;;14.00;12.60;;;;;;;5.00;97.12;101719.88;7391717;19;20369;-58
2023/11/18 01:25:05;;;;;;;12.07;10.88;;;;;;;5.00;96.43;101727.78;7389345;19;20384;-60
2023/11/18 01:27:35;;;;;;;13.15;11.75;;;;;;;5.03;96.49;101727.53;7393195;19;20389;-60
2023/11/18 01:30:04;;;;;;;11.93;10.82;;;;;;;5.07;96.61;101721.09;7390792;19;20368;-60
2023/11/18 01:32:31;;;;;;;9.13;8.23;;;;;;;5.10;96.11;101739.28;7392369;19;20689;-61
2023/11/18 01:34:58;;;;;;;14.38;12.88;;;;;;;5.10;95.89;101734.03;7388979;19;20364;-61
2023/11/18 01:37:24;;;;;;;12.27;11.00;;;;;;;5.10;96.06;101726.13;7390995;19;20704;-60
2023/11/18 01:39:51;;;;;;;10.00;9.00;;;;;;;5.07;95.65;101731.63;7388354;19;20368;-61
2023/11/18 01:42:18;;;;;;;11.02;9.95;;;;;;;5.03;95.40;101730.16;7386682;19;20360;-60
2023/11/18 01:44:45;;;;;;;12.73;10.20;;;;;;;5.00;95.59;101725.97;7391541;19;20370;-58
2023/11/18 01:47:12;;;;;;;10.18;8.82;;;;;;;4.97;95.61;101735.88;7389575;19;20914;-60
2023/11/18 01:49:40;;;;;;;10.02;8.88;;;;;;;4.88;95.13;101732.94;7391440;19;20351;-58
2023/11/18 01:52:08;;;;;;;10.20;9.20;;;;;;;4.83;95.06;101727.22;7390058;19;20336;-58
2023/11/18 01:54:37;;;;;;;11.15;9.00;;;;;;;4.78;95.11;101728.47;7389211;19;20426;-59
2023/11/18 01:57:05;;;;;;;10.00;9.00;;;;;;;4.76;95.50;101722.50;7397940;19;20370;-60
2023/11/18 01:59:33;;;;;;;10.23;9.13;;;;;;;4.74;95.39;101722.63;7396034;19;20364;-60
2023/11/18 02:02:01;;;;;;;11.85;9.43;;;;;;;4.72;95.37;101729.78;7396758;19;20360;-60
2023/11/18 02:04:30;;;;;;;11.30;9.85;;;;;;;4.66;95.48;101735.50;7398737;19;20368;-58
2023/11/18 02:06:58;;;;;;;13.63;10.20;;;;;;;4.63;95.79;101733.06;7395627;19;20352;-59
2023/11/18 02:09:28;;;;;;;12.63;11.20;;;;;;;4.64;96.11;101743.47;7394591;19;20385;-60
2023/11/18 02:12:26;;;;;;;11.80;10.70;;;;;;;4.65;95.78;101744.31;7396143;19;20368;-60
2023/11/18 02:14:55;;;;;;;13.88;11.80;;;;;;;4.66;95.99;101748.63;7397036;19;20892;-58
2023/11/18 02:17:25;;;;;;;12.35;11.10;;;;;;;4.66;95.85;101754.72;7397967;19;20452;-60
2023/11/18 02:19:55;;;;;;;12.37;11.17;;;;;;;4.65;96.15;101757.44;7397788;19;20381;-60
2023/11/18 02:22:24;;;;;;;14.55;13.05;;;;;;;4.68;96.69;101754.63;7396027;19;20841;-60
2023/11/18 02:24:54;;;;;;;16.45;14.75;;;;;;;4.74;96.88;101761.19;7395627;19;20846;-59
2023/11/18 02:27:24;;;;;;;14.50;12.73;;;;;;;4.80;97.02;101758.13;7397472;19;20394;-60
2023/11/18 02:29:51;;;;;;;14.93;13.40;;;;;;;4.85;96.88;101767.38;7398248;19;20365;-60
2023/11/18 02:33:05;;;;;;;18.20;16.30;;;;;;;4.89;96.69;101755.69;7398468;19;20344;-60
2023/11/18 02:35:37;;;;;;;19.27;17.33;;;;;;;4.98;97.25;101769.13;7391285;19;22263;-59
2023/11/18 02:38:10;;;;;;;18.63;16.58;;;;;;;5.03;97.11;101773.06;7397592;19;20356;-60
2023/11/18 02:40:43;;;;;;;18.95;16.85;;;;;;;5.11;97.00;101772.50;7394177;19;20368;-61
2023/11/18 02:43:11;;;;;;;21.00;18.83;;;;;;;5.18;97.04;101770.28;7397087;19;20345;-60
2023/11/18 02:45:39;;;;;;;22.90;19.93;;;;;;;5.24;97.04;101772.44;7396964;19;20381;-63
2023/11/18 02:48:06;;;;;;;23.73;19.77;;;;;;;5.29;97.11;101772.94;7396883;19;20356;-59
2023/11/18 02:50:38;;;;;;;23.38;20.88;;;;;;;5.35;97.07;101766.38;7394221;19;20671;-60
2023/11/18 02:53:05;;;;;;;25.13;22.13;;;;;;;5.40;97.00;101772.13;7396267;19;20348;-61
2023/11/18 02:55:32;;;;;;;25.35;22.48;;;;;;;5.44;96.94;101757.78;7396513;19;20883;-61
2023/11/18 02:58:00;;;;;;;25.27;22.42;;;;;;;5.48;96.90;101762.75;7395425;19;20964;-58
2023/11/18 03:00:29;;;;;;;28.42;25.23;;;;;;;5.54;96.91;101766.69;7393051;19;20733;-61
2023/11/18 03:02:56;;;;;;;29.83;25.63;;;;;;;5.58;96.86;101762.88;7396658;19;20501;-62
2023/11/18 03:05:26;;;;;;;29.30;25.02;;;;;;;5.63;97.04;101759.88;7396098;19;20376;-60
2023/11/18 03:07:56;;;;;;;29.60;25.45;;;;;;;5.69;96.82;101760.25;7393851;19;20440;-61
2023/11/18 03:10:23;;;;;;;28.95;25.65;;;;;;;5.73;96.98;101755.59;7396730;19;20436;-59
2023/11/18 03:12:52;;;;;;;31.10;26.35;;;;;;;5.78;96.93;101755.25;7396695;19;20718;-61
2023/11/18 03:15:21;;;;;;;32.58;28.08;;;;;;;5.79;96.58;101749.03;7397684;19;20356;-59
2023/11/18 03:17:49;;;;;;;33.75;29.88;;;;;;;5.80;96.43;101745.44;7396297;19;20361;-61
2023/11/18 03:20:18;;;;;;;32.58;29.08;;;;;;;5.80;96.31;101745.44;7392120;19;20360;-60
2023/11/18 03:22:51;;;;;;;35.38;29.38;;;;;;;5.77;96.13;101743.88;7393310;19;20674;-61
2023/11/18 03:25:21;;;;;;;36.45;29.38;;;;;;;5.73;95.73;101752.97;7395670;19;20385;-61
2023/11/18 03:27:49;;;;;;;32.63;29.05;;;;;;;5.69;95.96;101752.34;7392708;19;20883;-60
2023/11/18 03:30:16;;;;;;;34.25;28.73;;;;;;;5.66;96.05;101754.41;7387082;19;20376;-60
2023/11/18 03:32:43;;;;;;;31.67;28.25;;;;;;;5.61;96.05;101752.13;7396258;19;20397;-60
2023/11/18 03:35:11;;;;;;;30.60;27.48;;;;;;;5.58;95.98;101744.44;7394269;19;20372;-60
2023/11/18 03:37:40;;;;;;;29.33;26.17;;;;;;;5.53;95.99;101757.13;7396552;19;20717;-58
2023/11/18 03:40:11;;;;;;;27.80;24.15;;;;;;;5.50;96.11;101752.94;7396479;19;20696;-59
2023/11/18 03:42:39;;;;;;;26.63;23.83;;;;;;;5.47;96.27;101755.78;7396186;19;20367;-57
2023/11/18 03:45:09;;;;;;;26.73;23.85;;;;;;;5.43;96.25;101750.88;7395402;19;20899;-59
2023/11/18 03:47:36;;;;;;;29.10;25.98;;;;;;;5.40;96.27;101753.72;7396000;19;20361;-61
2023/11/18 03:50:03;;;;;;;32.35;28.88;;;;;;;5.37;96.47;101764.47;7392124;19;20436;-59
2023/11/18 03:52:30;;;;;;;33.38;29.77;;;;;;;5.32;96.57;101763.03;7395352;19;20728;-60
2023/11/18 03:54:57;;;;;;;33.78;30.13;;;;;;;5.29;97.17;101757.16;7392420;19;20349;-59
2023/11/18 03:57:24;;;;;;;36.95;31.70;;;;;;;5.24;97.18;101762.75;7393929;19;20455;-59
2023/11/18 03:59:51;;;;;;;38.13;32.83;;;;;;;5.20;97.74;101769.19;7392154;19;20381;-58
2023/11/18 04:02:17;;;;;;;41.72;37.03;;;;;;;5.20;97.89;101758.69;7393344;19;20447;-58
2023/11/18 04:04:44;;;;;;;45.08;37.92;;;;;;;5.21;98.25;101751.66;7390906;19;20380;-58
2023/11/18 04:07:11;;;;;;;45.90;38.40;;;;;;;5.21;98.14;101749.00;7395938;19;20420;-57
2023/11/18 04:09:41;;;;;;;44.40;36.63;;;;;;;5.27;98.23;101749.41;7395642;19;20446;-60
2023/11/18 04:12:08;;;;;;;40.13;35.45;;;;;;;5.35;98.36;101745.34;7391829;19;20360;-59
2023/11/18 04:14:35;;;;;;;38.75;34.55;;;;;;;5.43;98.21;101754.34;7394116;19;20398;-59
2023/11/18 04:17:02;;;;;;;41.25;36.85;;;;;;;5.48;98.13;101746.09;7395600;19;20348;-59
2023/11/18 04:19:29;;;;;;;41.45;35.20;;;;;;;5.52;97.94;101747.53;7390939;19;20364;-60
2023/11/18 04:21:56;;;;;;;38.88;34.25;;;;;;;5.57;97.84;101740.16;7391909;19;20376;-59
2023/11/18 04:24:23;;;;;;;40.35;33.40;;;;;;;5.60;97.77;101739.91;7388416;19;20376;-59
2023/11/18 04:26:50;;;;;;;36.60;32.60;;;;;;;5.64;97.81;101730.81;7394476;19;20910;-59
2023/11/18 04:29:17;;;;;;;35.85;31.95;;;;;;;5.66;97.52;101742.06;7393460;19;20371;-60
2023/11/18 04:31:44;;;;;;;35.28;31.38;;;;;;;5.68;97.34;101734.88;7392684;19;20936;-60
2023/11/18 04:34:11;;;;;;;33.60;30.00;;;;;;;5.70;97.34;101735.63;7391004;19;20376;-59
2023/11/18 04:36:41;;;;;;;34.30;30.50;;;;;;;5.71;97.35;101737.28;7392374;19;20380;-59
2023/11/18 04:39:11;;;;;;;33.50;30.00;;;;;;;5.71;96.94;101732.00;7393176;19;20353;-60
2023/11/18 04:41:38;;;;;;;35.28;31.05;;;;;;;5.71;96.93;101731.19;7392388;19;20459;-60
2023/11/18 04:44:06;;;;;;;35.42;30.50;;;;;;;5.72;97.03;101732.88;7391504;19;20373;-59
2023/11/18 04:46:32;;;;;;;35.08;31.38;;;;;;;5.69;96.73;101728.66;7393202;19;20344;-59
2023/11/18 04:49:01;;;;;;;35.33;31.40;;;;;;;5.71;97.03;101736.44;7390361;19;20683;-58
2023/11/18 04:51:28;;;;;;;36.63;31.38;;;;;;;5.74;97.10;101730.97;7394648;19;20896;-60
2023/11/18 04:53:55;;;;;;;36.30;32.40;;;;;;;5.78;97.25;101721.00;7393360;19;20340;-59
2023/11/18 04:56:22;;;;;;;36.33;31.92;;;;;;;5.79;97.18;101723.53;7393262;19;20371;-60
2023/11/18 04:58:48;;;;;;;37.05;32.58;;;;;;;5.82;97.02;101727.72;7391881;19;20359;-60
2023/11/18 05:01:15;;;;;;;39.20;33.72;;;;;;;5.83;97.34;101724.16;7392979;19;20439;-61
2023/11/18 05:03:42;;;;;;;38.55;33.53;;;;;;;5.86;97.09;101726.53;7390193;19;20360;-59
2023/11/18 05:06:09;;;;;;;37.80;33.67;;;;;;;5.87;97.05;101722.94;7392714;19;20507;-60
2023/11/18 05:08:36;;;;;;;38.10;33.15;;;;;;;5.88;96.89;101727.25;7391891;19;20349;-59
2023/11/18 05:11:04;;;;;;;36.70;32.72;;;;;;;5.87;96.78;101718.53;7393141;19;20363;-59
2023/11/18 05:13:33;;;;;;;38.42;34.15;;;;;;;5.90;96.98;101717.44;7392747;19;20348;-60
2023/11/18 05:16:01;;;;;;;38.88;33.95;;;;;;;5.91;97.11;101717.31;7392621;19;20373;-59
2023/11/18 05:18:33;;;;;;;39.57;33.17;;;;;;;5.90;96.93;101713.00;7392364;19;20370;-59
2023/11/18 05:21:00;;;;;;;40.20;35.60;;;;;;;5.92;96.80;101718.97;7392340;19;20352;-59
2023/11/18 05:23:29;;;;;;;42.60;36.37;;;;;;;5.95;97.08;101722.38;7392927;19;20841;-60
2023/11/18 05:25:56;;;;;;;40.25;35.90;;;;;;;5.96;96.94;101719.63;7392037;19;20387;-59
2023/11/18 05:28:23;;;;;;;39.97;35.65;;;;;;;5.97;96.86;101723.09;7392380;19;20357;-61
2023/11/18 05:30:51;;;;;;;39.13;34.83;;;;;;;6.00;97.14;101715.78;7391096;19;20810;-59
2023/11/18 05:33:19;;;;;;;39.27;35.03;;;;;;;6.05;97.22;101711.00;7389763;19;20365;-60
2023/11/18 05:35:49;;;;;;;39.40;35.10;;;;;;;6.09;97.38;101717.69;7393517;19;20364;-63
2023/11/18 05:38:21;;;;;;;40.70;36.22;;;;;;;6.12;97.01;101716.66;7393880;19;20389;-60
2023/11/18 05:40:56;;;;;;;37.50;33.47;;;;;;;6.15;96.85;101710.28;7390769;19;20655;-58
2023/11/18 05:43:25;;;;;;;38.65;34.55;;;;;;;6.13;96.49;101700.69;7391823;19;20364;-60
2023/11/18 05:46:35;;;;;;;38.10;34.08;;;;;;;6.16;96.24;101693.50;7392585;19;20371;-60
2023/11/18 05:48:43;;;;;;;38.30;34.15;;;;;;;6.17;96.31;101695.19;7391729;19;20356;-58
2023/11/18 05:51:11;;;;;;;38.97;34.78;;;;;;;6.17;96.24;101692.56;7392279;19;20755;-60
2023/11/18 05:53:45;;;;;;;39.63;35.33;;;;;;;6.17;96.20;101684.66;7394289;19;20359;-59
2023/11/18 05:56:12;;;;;;;39.67;35.45;;;;;;;6.13;96.04;101682.25;7392270;19;20372;-58
2023/11/18 05:58:39;;;;;;;39.75;35.20;;;;;;;6.11;95.97;101686.81;7390907;19;22178;-60
2023/11/18 06:01:10;;;;;;;39.67;35.35;;;;;;;6.10;95.86;101689.59;7390758;19;20344;-58
2023/11/18 06:03:42;;;;;;;38.60;34.55;;;;;;;6.07;95.80;101682.72;7391243;19;20863;-59
2023/11/18 06:06:10;;;;;;;39.47;35.03;;;;;;;6.05;96.05;101681.19;7392753;19;20793;-58
2023/11/18 06:08:40;;;;;;;39.45;35.17;;;;;;;6.04;96.10;101693.53;7391868;19;20368;-58
2023/11/18 06:11:15;;;;;;;41.55;35.47;;;;;;;6.02;95.91;101697.25;7393155;19;20379;-60
2023/11/18 06:13:44;;;;;;;39.78;35.65;;;;;;;6.00;96.16;101694.72;7392700;19;20393;-60
2023/11/18 06:16:27;;;;;;;38.50;34.40;;;;;;;6.00;95.99;101683.34;7390716;19;20940;-58
2023/11/18 06:18:55;;;;;;;38.75;34.53;;;;;;;5.98;95.88;101680.84;7386530;19;20393;-61
2023/11/18 06:21:24;;;;;;;37.53;33.50;;;;;;;5.93;96.00;101689.06;7387929;19;20888;-60
2023/11/18 06:23:52;;;;;;;39.78;34.97;;;;;;;5.87;95.65;101688.72;7386509;19;20999;-60
2023/11/18 06:26:19;;;;;;;39.38;35.13;;;;;;;5.82;95.93;101690.84;7386452;19;20386;-61
2023/11/18 06:28:49;;;;;;;39.33;35.17;;;;;;;5.77;96.06;101688.59;7386367;19;20424;-59
2023/11/18 06:31:15;;;;;;;40.50;36.00;;;;;;;5.75;96.22;101694.94;7387823;19;20891;-60
2023/11/18 06:33:44;;;;;;;39.92;35.72;;;;;;;5.71;96.33;101700.41;7390223;19;20369;-60
2023/11/18 06:36:13;;;;;;;42.15;35.85;;;;;;;5.68;96.05;101703.31;7390111;19;20348;-62
2023/11/18 06:38:41;;;;;;;40.90;36.00;;;;;;;5.65;96.17;101706.19;7390758;19;20383;-58
2023/11/18 06:41:13;;;;;;;41.10;36.65;;;;;;;5.61;96.21;101694.22;7392423;19;20360;-62
2023/11/18 06:43:51;;;;;;;41.03;35.80;;;;;;;5.54;96.19;101693.00;7397555;19;20367;-59
2023/11/18 06:46:22;;;;;;;42.10;36.90;;;;;;;5.46;96.28;101700.63;7396893;19;20424;-60
2023/11/18 06:48:50;;;;;;;46.00;37.92;;;;;;;5.38;96.19;101714.38;7397294;19;20364;-59
2023/11/18 06:51:16;;;;;;;45.30;37.57;;;;;;;5.30;96.48;101709.69;7398827;19;20775;-60
2023/11/18 06:53:44;;;;;;;47.65;38.85;;;;;;;5.21;96.76;101715.66;7397602;19;20365;-59
2023/11/18 06:56:11;;;;;;;48.15;38.55;;;;;;;5.13;96.80;101718.00;7398262;19;20349;-60
2023/11/18 06:58:41;;;;;;;47.13;38.83;;;;;;;5.06;96.93;101724.69;7398904;19;20333;-57
2023/11/18 07:01:09;;;;;;;51.20;38.97;;;;;;;5.01;97.24;101711.84;7396788;19;20388;-60
2023/11/18 07:03:36;;;;;;;47.22;39.25;;;;;;;5.00;97.43;101709.38;7395797;19;20489;-60
2023/11/18 07:06:05;;;;;;;52.63;41.05;;;;;;;4.96;97.24;101718.44;7396661;19;20389;-59
2023/11/18 07:08:34;;;;;;;53.42;41.55;;;;;;;4.94;97.43;101720.31;7396621;19;20432;-59
2023/11/18 07:11:02;;;;;;;52.92;40.75;;;;;;;4.95;97.61;101729.88;7396081;19;20939;-60
2023/11/18 07:13:29;;;;;;;49.92;40.05;;;;;;;4.95;97.74;101725.47;7395740;19;20375;-58
2023/11/18 07:15:57;;;;;;;49.15;40.15;;;;;;;4.95;97.88;101717.59;7395059;19;20440;-60
2023/11/18 07:18:24;;;;;;;50.75;40.63;;;;;;;4.98;98.03;101722.63;7396651;19;20393;-59
2023/11/18 07:20:52;;;;;;;50.10;40.13;;;;;;;5.02;97.99;101723.25;7398459;19;20364;-59
2023/11/18 07:23:19;;;;;;;49.92;40.55;;;;;;;5.06;97.94;101725.53;7395335;19;20356;-59
2023/11/18 07:25:46;;;;;;;47.63;39.53;;;;;;;5.11;98.09;101728.63;7396688;19;20340;-63
2023/11/18 07:28:17;;;;;;;48.28;38.58;;;;;;;5.20;98.10;101728.91;7393612;19;20380;-63
2023/11/18 07:30:47;;;;;;;50.33;40.00;;;;;;;5.30;98.23;101728.09;7395136;19;20348;-62
2023/11/18 07:33:14;;;;;;;46.45;37.92;;;;;;;5.39;98.00;101728.38;7393104;19;20552;-63
2023/11/18 07:35:42;;;;;;;47.55;38.38;;;;;;;5.44;97.50;101718.31;7395438;19;20456;-62
2023/11/18 07:38:10;;;;;;;46.65;37.00;;;;;;;5.51;97.30;101724.81;7396228;19;20332;-62
2023/11/18 07:40:37;;;;;;;46.50;37.45;;;;;;;5.57;97.50;101726.97;7397592;19;20714;-62
2023/11/18 07:43:06;;;;;;;44.08;36.13;;;;;;;5.63;97.15;101726.53;7393224;19;20881;-62
2023/11/18 07:45:37;;;;;;;46.75;38.08;;;;;;;5.72;97.21;101727.59;7396051;19;20895;-63
2023/11/18 07:48:11;;;;;;;49.60;40.00;;;;;;;5.79;97.38;101730.59;7397369;19;20349;-62
2023/11/18 07:50:40;;;;;;;44.08;36.38;;;;;;;5.86;96.81;101739.69;7398465;19;20689;-63
2023/11/18 07:53:08;;;;;;;42.17;35.53;;;;;;;5.91;96.88;101732.28;7393399;19;20375;-62
2023/11/18 07:55:34;;;;;;;41.67;33.85;;;;;;;5.96;96.27;101730.16;7390916;19;20349;-62
2023/11/18 07:58:01;;;;;;;36.47;31.17;;;;;;;6.00;96.07;101742.13;7394520;19;20885;-63
2023/11/18 08:00:30;;;;;;;39.38;33.47;;;;;;;6.03;95.90;101733.16;7394655;19;20332;-62
2023/11/18 08:02:59;;;;;;;189.27;125.28;;;;;;;6.04;95.67;101737.47;7393929;19;20440;-62
2023/11/18 08:05:28;;;;;;;50.00;40.30;;;;;;;6.07;95.75;101750.41;7388637;19;21050;-62
2023/11/18 08:07:54;;;;;;;40.38;34.67;;;;;;;6.09;95.46;101736.13;7393608;19;20372;-61
2023/11/18 08:10:21;;;;;;;41.00;33.78;;;;;;;6.11;95.33;101739.50;7392389;19;20436;-63
2023/11/18 08:12:48;;;;;;;43.03;34.88;;;;;;;6.15;95.37;101740.09;7394181;19;20428;-63
2023/11/18 08:15:15;;;;;;;42.50;33.75;;;;;;;6.20;95.28;101731.81;7392368;19;20372;-62
2023/11/18 08:17:42;;;;;;;44.58;34.67;;;;;;;6.23;95.08;101739.50;7394112;19;20356;-63
2023/11/18 08:20:14;;;;;;;43.60;34.63;;;;;;;6.29;94.95;101736.38;7392887;19;20345;-64
2023/11/18 08:22:45;;;;;;;42.15;33.25;;;;;;;6.35;94.62;101730.59;7394666;19;20372;-63
2023/11/18 08:25:12;;;;;;;44.90;33.80;;;;;;;6.41;94.88;101729.28;7393687;19;20386;-63
2023/11/18 08:27:40;;;;;;;44.90;33.90;;;;;;;6.47;94.78;101724.38;7392623;19;20359;-62
2023/11/18 08:30:11;;;;;;;49.53;36.15;;;;;;;6.55;94.46;101717.66;7391152;19;20369;-63
2023/11/18 08:32:41;;;;;;;45.50;35.17;;;;;;;6.63;94.55;101702.91;7394028;19;20357;-63
2023/11/18 08:35:09;;;;;;;42.15;33.90;;;;;;;6.70;94.08;101703.22;7390970;19;20899;-63
2023/11/18 08:37:39;;;;;;;42.55;32.60;;;;;;;6.75;93.88;101693.13;7393896;19;20691;-63
2023/11/18 08:40:21;;;;;;;42.17;33.55;;;;;;;6.81;93.94;101687.34;7393070;19;20372;-63
2023/11/18 08:42:49;;;;;;;39.67;32.10;;;;;;;6.84;93.47;101679.22;7391987;19;20465;-63
2023/11/18 08:45:27;;;;;;;135.45;103.15;;;;;;;6.89;93.37;101682.28;7391520;19;20377;-63
2023/11/18 08:48:02;;;;;;;41.50;34.50;;;;;;;6.96;93.02;101684.44;7392670;19;20361;-63
2023/11/18 08:50:31;;;;;;;40.45;33.90;;;;;;;7.01;93.26;101684.88;7393403;19;20355;-63
2023/11/18 08:52:57;;;;;;;59.58;45.55;;;;;;;7.07;92.99;101690.47;7388565;19;20376;-63
2023/11/18 08:55:39;;;;;;;41.35;31.90;;;;;;;7.13;92.33;101694.41;7387389;19;20375;-62
2023/11/18 08:58:21;;;;;;;41.38;30.83;;;;;;;7.14;91.93;101707.50;7389920;19;20358;-63
2023/11/18 09:00:54;;;;;;;37.28;31.35;;;;;;;7.17;91.41;101710.84;7390859;19;20376;-63
2023/11/18 09:03:25;;;;;;;38.63;31.27;;;;;;;7.17;91.09;101716.94;7388838;19;20360;-60
2023/11/18 09:05:58;;;;;;;40.03;31.73;;;;;;;7.15;91.18;101724.97;7391673;19;20343;-62
2023/11/18 09:08:36;;;;;;;37.67;31.90;;;;;;;7.14;90.67;101720.69;7392506;19;20348;-62
2023/11/18 09:11:07;;;;;;;38.58;30.25;;;;;;;7.19;91.01;101720.28;7391388;19;20375;-62
2023/11/18 09:13:35;;;;;;;38.78;31.02;;;;;;;7.22;90.92;101714.75;7390962;19;20408;-63
2023/11/18 09:16:04;;;;;;;40.58;31.15;;;;;;;7.27;91.08;101709.94;7390687;19;20895;-62
2023/11/18 09:18:33;;;;;;;40.92;31.63;;;;;;;7.32;91.04;101706.91;7391864;19;20340;-62
2023/11/18 09:21:02;;;;;;;38.83;30.98;;;;;;;7.36;90.62;101705.69;7390378;19;20354;-62
2023/11/18 09:23:31;;;;;;;40.97;30.75;;;;;;;7.42;90.85;101707.00;7386465;19;20365;-62
2023/11/18 09:25:58;;;;;;;40.92;30.30;;;;;;;7.48;90.52;101687.97;7388608;19;20349;-62
2023/11/18 09:28:29;;;;;;;38.87;29.73;;;;;;;7.49;89.70;101689.66;7387897;19;20365;-61
2023/11/18 09:31:02;;;;;;;42.63;31.95;;;;;;;7.55;90.39;101691.78;7387724;19;20451;-62
2023/11/18 09:33:34;;;;;;;38.70;30.17;;;;;;;7.60;89.16;101681.63;7389310;19;20374;-62
2023/11/18 09:36:12;;;;;;;39.15;29.67;;;;;;;7.65;89.11;101686.53;7389946;19;20769;-62
2023/11/18 09:38:40;;;;;;;38.22;29.15;;;;;;;7.68;88.91;101684.47;7389440;19;20799;-62
2023/11/18 09:41:10;;;;;;;38.70;29.38;;;;;;;7.72;89.09;101680.59;7393762;19;20936;-62
2023/11/18 09:43:43;;;;;;;40.25;29.50;;;;;;;7.80;88.62;101687.00;7392254;19;20415;-62
2023/11/18 09:46:13;;;;;;;39.80;28.02;;;;;;;7.78;87.69;101696.88;7393615;19;20361;-62
2023/11/18 09:48:47;;;;;;;38.53;27.05;;;;;;;7.81;87.87;101694.81;7391931;19;20396;-62
2023/11/18 09:51:20;;;;;;;39.22;28.15;;;;;;;7.83;87.91;101694.69;7393231;19;20344;-62
2023/11/18 09:53:52;;;;;;;38.90;27.27;;;;;;;7.87;87.69;101682.88;7389921;19;20939;-62
2023/11/18 09:56:37;;;;;;;37.20;26.17;;;;;;;7.86;87.35;101694.41;7389135;19;20359;-62
2023/11/18 09:59:15;;;;;;;36.00;25.58;;;;;;;7.84;87.14;101699.84;7393117;19;20352;-62
2023/11/18 10:01:46;;;;;;;36.47;25.48;;;;;;;7.80;86.77;101695.78;7393571;19;20446;-61
2023/11/18 10:04:17;;;;;;;34.78;25.33;;;;;;;7.76;86.74;101700.50;7388378;19;20344;-61
2023/11/18 10:06:47;;;;;;;32.22;23.95;;;;;;;7.74;86.44;101689.22;7393316;19;20364;-61
2023/11/18 10:09:19;;;;;;;33.15;24.65;;;;;;;7.77;86.54;101674.91;7391167;19;20348;-62
2023/11/18 10:11:48;;;;;;;31.23;22.98;;;;;;;7.82;86.13;101669.22;7392117;19;20360;-62
2023/11/18 10:14:16;;;;;;;33.65;24.45;;;;;;;7.88;86.17;101660.78;7387241;19;20379;-62
2023/11/18 10:16:53;;;;;;;34.38;23.13;;;;;;;7.99;86.30;101651.91;7391728;19;20377;-62
2023/11/18 10:19:21;;;;;;;32.72;22.52;;;;;;;8.07;85.44;101641.50;7396869;19;20410;-62
2023/11/18 10:21:50;;;;;;;34.25;23.15;;;;;;;8.17;85.20;101643.19;7398288;19;20356;-60
2023/11/18 10:24:20;;;;;;;28.45;20.83;;;;;;;8.30;84.69;101639.47;7391708;19;20375;-62
2023/11/18 10:26:56;;;;;;;30.17;23.20;;;;;;;8.31;83.04;101634.06;7398507;19;20355;-62
2023/11/18 10:29:27;;;;;;;26.60;19.35;;;;;;;8.46;83.35;101636.31;7398181;19;20332;-60
2023/11/18 10:32:16;;;;;;;26.40;18.30;;;;;;;8.59;82.23;101638.72;7396959;19;20376;-62
2023/11/18 10:34:42;;;;;;;22.60;17.08;;;;;;;8.73;82.76;101635.63;7395092;19;20463;-62
2023/11/18 10:37:10;;;;;;;21.03;15.10;;;;;;;8.80;80.36;101631.47;7397808;19;20524;-63
2023/11/18 10:39:37;;;;;;;21.98;15.95;;;;;;;8.82;79.79;101637.44;7395960;19;20390;-62
2023/11/18 10:42:05;;;;;;;19.27;14.20;;;;;;;8.86;78.67;101625.63;7394627;19;20377;-63
2023/11/18 10:44:31;;;;;;;20.70;14.10;;;;;;;8.91;78.14;101612.78;7392964;19;20389;-62
2023/11/18 10:46:59;;;;;;;18.88;12.98;;;;;;;8.95;77.21;101619.47;7395341;19;20351;-62
2023/11/18 10:49:36;;;;;;;16.67;12.07;;;;;;;8.99;76.71;101622.66;7394346;19;20366;-62
2023/11/18 10:52:06;;;;;;;15.82;11.63;;;;;;;9.02;75.83;101610.97;7396252;19;20502;-62
2023/11/18 10:54:34;;;;;;;14.68;11.38;;;;;;;9.16;76.71;101610.53;7396437;19;20443;-62
2023/11/18 10:57:07;;;;;;;22.65;18.83;;;;;;;9.18;74.49;101598.81;7396700;19;20414;-62
2023/11/18 10:59:36;;;;;;;15.38;10.48;;;;;;;9.26;74.84;101597.25;7396986;19;20377;-62
2023/11/18 11:02:19;;;;;;;14.13;9.90;;;;;;;9.24;72.70;101581.50;7396980;19;20340;-61
2023/11/18 11:04:48;;;;;;;14.17;9.60;;;;;;;9.34;74.63;101578.81;7393349;19;20963;-61
2023/11/18 11:07:19;;;;;;;15.70;12.85;;;;;;;9.44;74.23;101579.63;7393583;19;20366;-62
2023/11/18 11:09:45;;;;;;;14.55;9.88;;;;;;;9.54;73.51;101579.56;7395391;19;20392;-63
2023/11/18 11:12:16;;;;;;;12.75;10.05;;;;;;;9.61;73.27;101572.72;7396703;19;20377;-63
2023/11/18 11:15:07;;;;;;;11.55;8.98;;;;;;;9.66;73.04;101573.09;7396085;19;20381;-61
2023/11/18 11:17:39;;;;;;;12.75;9.48;;;;;;;9.75;72.71;101563.44;7398678;19;20354;-62
2023/11/18 11:23:28;;;;;;;12.23;8.38;;;;;;;9.83;71.55;101537.03;7386665;19;20371;-62
2023/11/18 11:26:19;;;;;;;11.30;7.85;;;;;;;9.85;71.23;101544.84;7391272;19;20675;-62
2023/11/18 11:29:13;;;;;;;10.98;8.60;;;;;;;9.86;71.14;101535.88;7393699;19;20446;-62
2023/11/18 11:31:44;;;;;;;11.48;7.90;;;;;;;9.89;71.12;101538.25;7393172;19;20368;-63